EGVP

Middle Wallop Airfield Airport

Middle Wallop, United Kingdom
METAR EGVP 220550Z AUTO 25005KT 9999 // OVC110/// 11/08 Q1019
Observed Flight Rules
Sep-22 @ 05:50 UTC (2 hours ago) Visual Flight Rules
Wind Visibility Clouds
250° at 5 knots 10,000+ meters
Temperatures Readings
Current 11°C / 52°F
Dewpoint 8°C / 46°F
Humidity 82%
Altimeter 30.09" Hg
Pressure 1019 hPa
Elevation 91
METAR EGVP 220550Z AUTO 25005KT 9999 // OVC110/// 11/08 Q1019
Observed Flight Rules
Sep-22 @ 05:50 UTC
(2 hours ago)
VFR
Wind Visibility
250° at 5 knots 10,000+ meters
Clouds
Temperature Dewpoint
11°C / 52°F 8°C / 46°F
Humidity Altimeter Pressure
82% 30.09" Hg 1019 hPa